Hackberry, AZ (86411)

17:15 MST le 25 octobre 2014 (GMT -0700)
Cedar Hills | Change Station
CLOSE
Current Station
Stations météorologiques personnelles
Location: Kingman, AZ
Altitude: 3980 ft
Stations météo à proximité

Alt. 3980 ft 35.20 °N, 113.73 °W | Updated 2 seconds ago

Partiellement nuageux
Partiellement nuageux
77.0 ° F
Paraît 78 ° F
N
4.0
Vent Variable Vent de SO
Gusts 13.0 mph

Aujourd'hui
Haut(e) -- | Bas -- ° F
--% Risque de précip.
Hier
Haut(e) -- | Bas -- ° F
Precip. -- pouce
6:50 AM 5:47 PM
Lune montante, 5% visible
Pression 29.88 pouce
Visibilité 10.0 Miles terrestres
Nuages Ciel dégagé
indice de chaleur 78 ° F
Point de rosée 49 ° F
Humidité 37%
Précipitations 0.00 pouce
Profondeur de la couche neigeuse Non disponible.
UV 0.0 sur 12
Pollen 5.20 sur 12
Qualité de l'air Non disponible.
Flu Activity No Activity
METAR KIGM 252351Z AUTO 22014KT 10SM CLR 26/07 A3006 RMK AO2 SLP117 T02610067 56012 $

More Conditions Fewer Conditions

Pression 29.88 pouce
Visibilité 10.0 Miles terrestres
Nuages Ciel dégagé
indice de chaleur 78 ° F
Point de rosée 49 ° F
Humidité 37%
Précipitations 0.00 pouce
Profondeur de la couche neigeuse Non disponible.
UV 0.0 sur 12
Pollen 5.20 sur 12
Qualité de l'air Non disponible.
Flu Activity No Activity
METAR KIGM 252351Z AUTO 22014KT 10SM CLR 26/07 A3006 RMK AO2 SLP117 T02610067 56012 $

More Conditions Fewer Conditions

10-Day Weather Forecast

Almanac

Astronomie

Oct. 25, 2014 Lever Coucher
Temps réel 06:50 MST 17:47 MST
Crépuscule civil 06:24 MST 18:13 MST
Crépuscule nautique 05:54 MST 18:43 MST
Crépuscule astronomique 05:24 MST 19:12 MST
Lune 08:30 MST (10/25) 19:16 MST (10/25)
Durée de lumière visible 11h 49m
Longueur du jour
10h 57m
Tomorrow will be 2m 2s shorter.
Lune montante, 5% of the Moon is Illuminated
Aujourd'hui
Lune montante
Oct 30
Premier quartier
Nov 6
Pleine lune
Nov 14
Dernier quartier
Nov 22
Nouveau

Extrêmes aujourd'hui

State Highs State Lows

Community

WunderPhotos

Upload Photos

1,765,039 Photos téléchargées !

Nearby

Épaisseur de neige

Station Depth Altitude
Baker Butte 0 in 7300 ft
Baldy 1 in 9125 ft
Hannagan Meadows 0 in 9020 ft
Beaver Head 0 in 7990 ft

Activité sismique

Ville Distance Mag. Time & Date
No recent earthquake activity has been reported nearby.
Minimum magnitude displayed is 2.5.

Températures des eaux côtières

Lieu Température
Aucun rapport de station

Stations météo à proximité